sensor_id;sensor_type;location;lat;lon;timestamp;P1;durP1;ratioP1;P2;durP2;ratioP2
4274;SDS011;2151;50.988;11.068;2024-03-23T00:55:59;133.50;;;19.00;;
4274;SDS011;2151;50.988;11.068;2024-03-23T00:58:24;140.53;;;21.67;;
4274;SDS011;2151;50.988;11.068;2024-03-23T01:00:49;136.33;;;19.80;;
4274;SDS011;2151;50.988;11.068;2024-03-23T01:03:15;139.03;;;19.60;;
4274;SDS011;2151;50.988;11.068;2024-03-23T01:05:41;142.93;;;20.80;;
4274;SDS011;2151;50.988;11.068;2024-03-23T01:08:06;135.80;;;19.60;;
4274;SDS011;2151;50.988;11.068;2024-03-23T01:10:32;137.10;;;21.50;;
4274;SDS011;2151;50.988;11.068;2024-03-23T01:12:58;139.93;;;21.40;;
4274;SDS011;2151;50.988;11.068;2024-03-23T01:15:23;138.43;;;21.63;;
4274;SDS011;2151;50.988;11.068;2024-03-23T01:17:49;140.20;;;20.90;;
4274;SDS011;2151;50.988;11.068;2024-03-23T01:20:15;139.80;;;22.50;;
4274;SDS011;2151;50.988;11.068;2024-03-23T01:22:40;136.37;;;19.97;;
4274;SDS011;2151;50.988;11.068;2024-03-23T01:25:06;137.30;;;22.13;;
4274;SDS011;2151;50.988;11.068;2024-03-23T01:27:32;141.57;;;22.23;;
4274;SDS011;2151;50.988;11.068;2024-03-23T01:29:59;145.80;;;23.30;;
4274;SDS011;2151;50.988;11.068;2024-03-23T01:32:24;137.80;;;21.30;;
4274;SDS011;2151;50.988;11.068;2024-03-23T01:34:50;137.60;;;21.47;;
4274;SDS011;2151;50.988;11.068;2024-03-23T01:37:16;143.17;;;22.97;;
4274;SDS011;2151;50.988;11.068;2024-03-23T01:39:41;143.40;;;23.00;;
4274;SDS011;2151;50.988;11.068;2024-03-23T01:42:07;140.23;;;22.50;;
4274;SDS011;2151;50.988;11.068;2024-03-23T01:44:32;138.17;;;21.57;;
4274;SDS011;2151;50.988;11.068;2024-03-23T01:46:58;148.23;;;22.50;;
4274;SDS011;2151;50.988;11.068;2024-03-23T01:49:24;139.37;;;21.03;;
4274;SDS011;2151;50.988;11.068;2024-03-23T01:51:49;137.37;;;21.40;;
4274;SDS011;2151;50.988;11.068;2024-03-23T01:54:15;141.70;;;23.50;;
4274;SDS011;2151;50.988;11.068;2024-03-23T01:56:41;143.17;;;23.27;;
4274;SDS011;2151;50.988;11.068;2024-03-23T01:59:09;139.93;;;22.30;;
4274;SDS011;2151;50.988;11.068;2024-03-23T02:01:35;141.07;;;23.70;;
4274;SDS011;2151;50.988;11.068;2024-03-23T02:04:03;138.40;;;21.70;;
4274;SDS011;2151;50.988;11.068;2024-03-23T02:06:28;138.93;;;21.33;;
4274;SDS011;2151;50.988;11.068;2024-03-23T02:08:56;144.30;;;22.50;;
4274;SDS011;2151;50.988;11.068;2024-03-23T02:11:22;145.93;;;23.83;;
4274;SDS011;2151;50.988;11.068;2024-03-23T02:13:47;145.87;;;24.20;;
4274;SDS011;2151;50.988;11.068;2024-03-23T02:16:13;152.90;;;25.10;;
4274;SDS011;2151;50.988;11.068;2024-03-23T02:18:39;141.73;;;23.87;;
4274;SDS011;2151;50.988;11.068;2024-03-23T02:21:05;152.40;;;25.20;;
4274;SDS011;2151;50.988;11.068;2024-03-23T02:23:32;148.97;;;25.07;;
4274;SDS011;2151;50.988;11.068;2024-03-23T02:25:57;155.23;;;25.60;;
4274;SDS011;2151;50.988;11.068;2024-03-23T02:28:23;147.80;;;26.10;;
4274;SDS011;2151;50.988;11.068;2024-03-23T02:30:52;148.30;;;26.20;;
4274;SDS011;2151;50.988;11.068;2024-03-23T02:33:17;146.13;;;24.20;;
4274;SDS011;2151;50.988;11.068;2024-03-23T02:35:46;146.20;;;24.30;;
4274;SDS011;2151;50.988;11.068;2024-03-23T02:38:12;144.40;;;25.27;;
4274;SDS011;2151;50.988;11.068;2024-03-23T02:40:37;145.23;;;23.67;;
4274;SDS011;2151;50.988;11.068;2024-03-23T02:43:04;139.17;;;22.10;;
4274;SDS011;2151;50.988;11.068;2024-03-23T02:45:29;146.87;;;25.00;;
4274;SDS011;2151;50.988;11.068;2024-03-23T02:47:55;146.10;;;24.27;;
4274;SDS011;2151;50.988;11.068;2024-03-23T02:50:21;142.83;;;22.90;;
4274;SDS011;2151;50.988;11.068;2024-03-23T02:52:47;139.30;;;22.67;;
4274;SDS011;2151;50.988;11.068;2024-03-23T02:55:13;138.30;;;21.83;;
4274;SDS011;2151;50.988;11.068;2024-03-23T02:57:38;142.93;;;22.40;;
4274;SDS011;2151;50.988;11.068;2024-03-23T03:00:04;142.00;;;22.60;;
4274;SDS011;2151;50.988;11.068;2024-03-23T03:02:36;142.07;;;23.00;;
4274;SDS011;2151;50.988;11.068;2024-03-23T03:05:04;139.77;;;22.40;;
4274;SDS011;2151;50.988;11.068;2024-03-23T03:07:30;140.00;;;22.03;;
4274;SDS011;2151;50.988;11.068;2024-03-23T03:09:57;144.20;;;22.37;;
4274;SDS011;2151;50.988;11.068;2024-03-23T03:12:22;139.13;;;22.47;;
4274;SDS011;2151;50.988;11.068;2024-03-23T03:14:48;142.53;;;22.37;;
4274;SDS011;2151;50.988;11.068;2024-03-23T03:17:14;135.43;;;21.17;;
4274;SDS011;2151;50.988;11.068;2024-03-23T03:19:40;140.37;;;21.93;;
4274;SDS011;2151;50.988;11.068;2024-03-23T03:22:05;135.90;;;21.13;;
4274;SDS011;2151;50.988;11.068;2024-03-23T03:24:33;141.67;;;22.60;;
4274;SDS011;2151;50.988;11.068;2024-03-23T03:26:58;140.67;;;21.33;;
4274;SDS011;2151;50.988;11.068;2024-03-23T03:29:24;147.63;;;22.17;;
4274;SDS011;2151;50.988;11.068;2024-03-23T03:31:50;139.53;;;21.87;;
4274;SDS011;2151;50.988;11.068;2024-03-23T03:34:15;142.83;;;21.90;;
4274;SDS011;2151;50.988;11.068;2024-03-23T03:36:41;136.27;;;21.73;;
4274;SDS011;2151;50.988;11.068;2024-03-23T03:39:07;148.60;;;23.80;;
4274;SDS011;2151;50.988;11.068;2024-03-23T03:41:33;142.97;;;23.23;;
4274;SDS011;2151;50.988;11.068;2024-03-23T03:43:58;142.73;;;23.37;;
4274;SDS011;2151;50.988;11.068;2024-03-23T03:46:28;144.40;;;22.70;;
4274;SDS011;2151;50.988;11.068;2024-03-23T03:48:54;139.20;;;22.20;;
4274;SDS011;2151;50.988;11.068;2024-03-23T03:51:19;142.57;;;23.20;;
4274;SDS011;2151;50.988;11.068;2024-03-23T03:53:45;142.27;;;23.53;;
4274;SDS011;2151;50.988;11.068;2024-03-23T03:56:12;140.80;;;22.77;;
4274;SDS011;2151;50.988;11.068;2024-03-23T03:58:37;145.37;;;25.47;;
4274;SDS011;2151;50.988;11.068;2024-03-23T04:01:03;151.37;;;24.70;;
4274;SDS011;2151;50.988;11.068;2024-03-23T04:03:28;143.50;;;23.10;;
4274;SDS011;2151;50.988;11.068;2024-03-23T04:05:54;143.90;;;23.60;;
4274;SDS011;2151;50.988;11.068;2024-03-23T04:08:20;148.73;;;25.17;;
4274;SDS011;2151;50.988;11.068;2024-03-23T04:10:46;145.97;;;24.47;;
4274;SDS011;2151;50.988;11.068;2024-03-23T04:13:15;144.67;;;22.50;;
4274;SDS011;2151;50.988;11.068;2024-03-23T04:15:41;139.70;;;20.40;;
4274;SDS011;2151;50.988;11.068;2024-03-23T04:18:06;134.77;;;16.83;;
4274;SDS011;2151;50.988;11.068;2024-03-23T04:20:32;128.33;;;15.67;;
4274;SDS011;2151;50.988;11.068;2024-03-23T04:23:00;128.50;;;15.03;;
4274;SDS011;2151;50.988;11.068;2024-03-23T04:25:26;122.10;;;12.97;;
4274;SDS011;2151;50.988;11.068;2024-03-23T04:27:52;124.70;;;13.97;;
4274;SDS011;2151;50.988;11.068;2024-03-23T04:30:17;125.50;;;14.00;;
4274;SDS011;2151;50.988;11.068;2024-03-23T04:32:43;124.27;;;14.00;;
4274;SDS011;2151;50.988;11.068;2024-03-23T04:35:09;125.33;;;14.10;;
4274;SDS011;2151;50.988;11.068;2024-03-23T04:37:38;131.30;;;16.27;;
4274;SDS011;2151;50.988;11.068;2024-03-23T04:40:07;143.03;;;18.10;;
4274;SDS011;2151;50.988;11.068;2024-03-23T04:42:33;138.43;;;18.10;;
4274;SDS011;2151;50.988;11.068;2024-03-23T04:45:00;137.23;;;19.23;;
4274;SDS011;2151;50.988;11.068;2024-03-23T04:47:25;141.20;;;19.40;;
4274;SDS011;2151;50.988;11.068;2024-03-23T04:49:51;140.77;;;19.20;;
4274;SDS011;2151;50.988;11.068;2024-03-23T04:52:17;137.70;;;18.83;;
4274;SDS011;2151;50.988;11.068;2024-03-23T04:54:43;140.40;;;19.70;;
4274;SDS011;2151;50.988;11.068;2024-03-23T04:57:09;142.70;;;20.43;;
4274;SDS011;2151;50.988;11.068;2024-03-23T04:59:36;140.80;;;19.43;;
4274;SDS011;2151;50.988;11.068;2024-03-23T05:02:02;135.00;;;18.07;;
4274;SDS011;2151;50.988;11.068;2024-03-23T05:04:28;135.30;;;18.27;;
4274;SDS011;2151;50.988;11.068;2024-03-23T05:06:53;138.93;;;19.50;;
4274;SDS011;2151;50.988;11.068;2024-03-23T05:09:20;136.30;;;18.03;;
4274;SDS011;2151;50.988;11.068;2024-03-23T05:11:46;132.33;;;16.87;;
4274;SDS011;2151;50.988;11.068;2024-03-23T05:14:15;133.97;;;16.43;;
4274;SDS011;2151;50.988;11.068;2024-03-23T05:16:41;129.63;;;15.87;;
4274;SDS011;2151;50.988;11.068;2024-03-23T05:19:07;131.23;;;16.60;;
4274;SDS011;2151;50.988;11.068;2024-03-23T05:21:32;132.40;;;16.73;;
4274;SDS011;2151;50.988;11.068;2024-03-23T05:23:58;133.40;;;17.50;;
4274;SDS011;2151;50.988;11.068;2024-03-23T05:26:23;133.50;;;16.33;;
4274;SDS011;2151;50.988;11.068;2024-03-23T05:28:49;130.10;;;15.67;;
4274;SDS011;2151;50.988;11.068;2024-03-23T05:31:27;128.87;;;15.83;;
4274;SDS011;2151;50.988;11.068;2024-03-23T05:33:53;129.63;;;15.33;;
4274;SDS011;2151;50.988;11.068;2024-03-23T05:36:18;128.50;;;15.00;;
4274;SDS011;2151;50.988;11.068;2024-03-23T05:38:44;130.97;;;15.80;;
4274;SDS011;2151;50.988;11.068;2024-03-23T05:41:10;125.27;;;14.73;;
4274;SDS011;2151;50.988;11.068;2024-03-23T05:43:35;131.03;;;14.40;;
4274;SDS011;2151;50.988;11.068;2024-03-23T05:46:01;127.57;;;14.93;;
4274;SDS011;2151;50.988;11.068;2024-03-23T05:48:28;127.17;;;14.83;;
4274;SDS011;2151;50.988;11.068;2024-03-23T05:50:55;126.10;;;14.27;;
4274;SDS011;2151;50.988;11.068;2024-03-23T05:53:21;123.70;;;13.00;;
4274;SDS011;2151;50.988;11.068;2024-03-23T05:55:46;127.67;;;14.60;;
4274;SDS011;2151;50.988;11.068;2024-03-23T05:58:15;132.67;;;15.43;;
4274;SDS011;2151;50.988;11.068;2024-03-23T06:00:41;132.87;;;15.83;;
4274;SDS011;2151;50.988;11.068;2024-03-23T06:03:10;130.50;;;15.90;;
4274;SDS011;2151;50.988;11.068;2024-03-23T06:05:36;130.47;;;15.67;;
4274;SDS011;2151;50.988;11.068;2024-03-23T06:08:02;133.17;;;15.70;;
4274;SDS011;2151;50.988;11.068;2024-03-23T06:10:28;132.87;;;16.50;;
4274;SDS011;2151;50.988;11.068;2024-03-23T06:12:54;134.17;;;18.10;;
4274;SDS011;2151;50.988;11.068;2024-03-23T06:15:19;137.07;;;17.40;;
4274;SDS011;2151;50.988;11.068;2024-03-23T06:17:45;139.40;;;16.93;;
4274;SDS011;2151;50.988;11.068;2024-03-23T06:20:11;139.47;;;18.47;;
4274;SDS011;2151;50.988;11.068;2024-03-23T06:22:39;128.97;;;14.47;;
4274;SDS011;2151;50.988;11.068;2024-03-23T06:25:05;127.90;;;14.97;;
4274;SDS011;2151;50.988;11.068;2024-03-23T06:27:31;124.80;;;11.60;;
4274;SDS011;2151;50.988;11.068;2024-03-23T06:30:00;126.40;;;12.30;;
4274;SDS011;2151;50.988;11.068;2024-03-23T06:32:27;120.33;;;10.07;;
4274;SDS011;2151;50.988;11.068;2024-03-23T06:34:53;119.27;;;9.10;;
4274;SDS011;2151;50.988;11.068;2024-03-23T06:37:18;119.30;;;9.07;;
4274;SDS011;2151;50.988;11.068;2024-03-23T06:39:45;118.97;;;9.10;;
4274;SDS011;2151;50.988;11.068;2024-03-23T06:42:11;123.00;;;9.03;;
4274;SDS011;2151;50.988;11.068;2024-03-23T06:44:37;119.97;;;9.07;;
4274;SDS011;2151;50.988;11.068;2024-03-23T06:47:02;119.70;;;9.47;;
4274;SDS011;2151;50.988;11.068;2024-03-23T06:49:28;126.17;;;9.83;;
4274;SDS011;2151;50.988;11.068;2024-03-23T06:51:55;119.03;;;8.87;;
4274;SDS011;2151;50.988;11.068;2024-03-23T06:54:21;123.30;;;10.20;;
4274;SDS011;2151;50.988;11.068;2024-03-23T06:56:46;120.80;;;8.73;;
4274;SDS011;2151;50.988;11.068;2024-03-23T06:59:12;120.83;;;9.30;;
4274;SDS011;2151;50.988;11.068;2024-03-23T07:01:38;114.37;;;6.97;;
4274;SDS011;2151;50.988;11.068;2024-03-23T07:04:04;117.57;;;7.50;;
4274;SDS011;2151;50.988;11.068;2024-03-23T07:06:29;115.27;;;7.80;;
4274;SDS011;2151;50.988;11.068;2024-03-23T07:11:27;114.80;;;7.00;;
4274;SDS011;2151;50.988;11.068;2024-03-23T07:13:53;116.50;;;7.50;;
4274;SDS011;2151;50.988;11.068;2024-03-23T07:16:22;114.67;;;5.87;;
4274;SDS011;2151;50.988;11.068;2024-03-23T07:18:49;112.47;;;5.57;;
4274;SDS011;2151;50.988;11.068;2024-03-23T07:21:16;113.50;;;6.00;;
4274;SDS011;2151;50.988;11.068;2024-03-23T07:23:44;112.77;;;5.47;;
4274;SDS011;2151;50.988;11.068;2024-03-23T07:26:10;112.43;;;5.50;;
4274;SDS011;2151;50.988;11.068;2024-03-23T07:28:36;113.67;;;5.90;;
4274;SDS011;2151;50.988;11.068;2024-03-23T07:31:04;111.57;;;5.07;;
4274;SDS011;2151;50.988;11.068;2024-03-23T07:33:31;112.40;;;5.50;;
4274;SDS011;2151;50.988;11.068;2024-03-23T07:35:59;113.70;;;6.00;;
4274;SDS011;2151;50.988;11.068;2024-03-23T07:38:27;114.10;;;5.87;;
4274;SDS011;2151;50.988;11.068;2024-03-23T07:41:06;113.27;;;5.80;;
4274;SDS011;2151;50.988;11.068;2024-03-23T07:43:32;111.47;;;4.97;;
4274;SDS011;2151;50.988;11.068;2024-03-23T07:45:58;111.57;;;5.10;;
4274;SDS011;2151;50.988;11.068;2024-03-23T07:48:23;111.00;;;4.80;;
4274;SDS011;2151;50.988;11.068;2024-03-23T07:51:02;112.83;;;4.90;;
4274;SDS011;2151;50.988;11.068;2024-03-23T07:53:28;111.37;;;4.83;;
4274;SDS011;2151;50.988;11.068;2024-03-23T07:55:58;111.20;;;5.07;;
4274;SDS011;2151;50.988;11.068;2024-03-23T07:58:24;111.90;;;5.17;;
4274;SDS011;2151;50.988;11.068;2024-03-23T08:00:50;110.77;;;5.20;;
4274;SDS011;2151;50.988;11.068;2024-03-23T08:03:16;111.53;;;5.27;;
4274;SDS011;2151;50.988;11.068;2024-03-23T08:05:42;110.90;;;4.90;;
4274;SDS011;2151;50.988;11.068;2024-03-23T08:08:07;111.17;;;4.83;;
4274;SDS011;2151;50.988;11.068;2024-03-23T08:10:33;113.20;;;5.60;;
4274;SDS011;2151;50.988;11.068;2024-03-23T08:12:59;112.00;;;5.00;;
4274;SDS011;2151;50.988;11.068;2024-03-23T08:15:25;111.30;;;4.77;;
4274;SDS011;2151;50.988;11.068;2024-03-23T08:17:51;111.63;;;4.93;;
4274;SDS011;2151;50.988;11.068;2024-03-23T08:20:17;111.77;;;4.90;;
4274;SDS011;2151;50.988;11.068;2024-03-23T08:22:42;110.80;;;4.90;;
4274;SDS011;2151;50.988;11.068;2024-03-23T08:25:08;111.13;;;4.67;;
4274;SDS011;2151;50.988;11.068;2024-03-23T08:27:34;110.80;;;5.20;;
4274;SDS011;2151;50.988;11.068;2024-03-23T08:30:00;111.97;;;5.00;;
4274;SDS011;2151;50.988;11.068;2024-03-23T08:34:54;113.30;;;5.33;;
4274;SDS011;2151;50.988;11.068;2024-03-23T08:37:20;112.70;;;4.87;;
4274;SDS011;2151;50.988;11.068;2024-03-23T08:39:46;113.90;;;5.57;;
4274;SDS011;2151;50.988;11.068;2024-03-23T08:42:12;112.00;;;5.13;;
4274;SDS011;2151;50.988;11.068;2024-03-23T08:44:38;112.57;;;5.10;;
4274;SDS011;2151;50.988;11.068;2024-03-23T08:47:04;112.40;;;5.17;;
4274;SDS011;2151;50.988;11.068;2024-03-23T08:49:31;112.27;;;5.20;;
4274;SDS011;2151;50.988;11.068;2024-03-23T08:51:57;112.37;;;5.00;;
4274;SDS011;2151;50.988;11.068;2024-03-23T08:54:22;112.37;;;5.03;;
4274;SDS011;2151;50.988;11.068;2024-03-23T08:56:50;111.67;;;5.13;;
4274;SDS011;2151;50.988;11.068;2024-03-23T08:59:16;113.00;;;5.23;;
4274;SDS011;2151;50.988;11.068;2024-03-23T09:01:42;111.97;;;5.17;;
4274;SDS011;2151;50.988;11.068;2024-03-23T09:04:09;113.67;;;5.70;;
4274;SDS011;2151;50.988;11.068;2024-03-23T09:06:36;112.27;;;5.47;;
4274;SDS011;2151;50.988;11.068;2024-03-23T09:09:05;111.77;;;4.80;;
4274;SDS011;2151;50.988;11.068;2024-03-23T09:11:31;111.67;;;4.90;;
4274;SDS011;2151;50.988;11.068;2024-03-23T09:13:57;111.97;;;5.10;;
4274;SDS011;2151;50.988;11.068;2024-03-23T09:16:23;111.60;;;4.93;;
4274;SDS011;2151;50.988;11.068;2024-03-23T09:18:48;113.73;;;4.97;;
4274;SDS011;2151;50.988;11.068;2024-03-23T09:21:14;111.87;;;5.10;;
4274;SDS011;2151;50.988;11.068;2024-03-23T09:23:40;112.67;;;4.90;;
4274;SDS011;2151;50.988;11.068;2024-03-23T09:26:06;111.87;;;4.83;;
4274;SDS011;2151;50.988;11.068;2024-03-23T09:28:33;117.30;;;5.20;;
4274;SDS011;2151;50.988;11.068;2024-03-23T09:31:05;111.80;;;5.07;;
4274;SDS011;2151;50.988;11.068;2024-03-23T09:33:30;113.53;;;4.93;;
4274;SDS011;2151;50.988;11.068;2024-03-23T09:35:56;113.47;;;5.07;;
4274;SDS011;2151;50.988;11.068;2024-03-23T09:38:22;119.50;;;5.30;;
4274;SDS011;2151;50.988;11.068;2024-03-23T09:40:49;112.20;;;5.07;;
4274;SDS011;2151;50.988;11.068;2024-03-23T09:43:15;112.97;;;5.30;;
4274;SDS011;2151;50.988;11.068;2024-03-23T09:45:41;113.10;;;5.40;;
4274;SDS011;2151;50.988;11.068;2024-03-23T09:48:11;116.57;;;5.27;;
4274;SDS011;2151;50.988;11.068;2024-03-23T09:50:39;114.47;;;5.33;;
4274;SDS011;2151;50.988;11.068;2024-03-23T09:53:06;115.33;;;5.27;;
4274;SDS011;2151;50.988;11.068;2024-03-23T09:55:32;112.80;;;5.23;;
4274;SDS011;2151;50.988;11.068;2024-03-23T09:58:04;112.67;;;5.03;;
4274;SDS011;2151;50.988;11.068;2024-03-23T10:00:33;111.50;;;5.07;;
4274;SDS011;2151;50.988;11.068;2024-03-23T10:03:00;112.87;;;5.07;;
4274;SDS011;2151;50.988;11.068;2024-03-23T10:05:31;119.77;;;5.70;;
4274;SDS011;2151;50.988;11.068;2024-03-23T10:10:41;112.03;;;5.10;;
4274;SDS011;2151;50.988;11.068;2024-03-23T10:13:06;112.80;;;4.87;;
4274;SDS011;2151;50.988;11.068;2024-03-23T10:15:35;113.70;;;5.90;;
4274;SDS011;2151;50.988;11.068;2024-03-23T10:18:20;114.87;;;5.73;;
4274;SDS011;2151;50.988;11.068;2024-03-23T10:20:50;112.73;;;5.03;;
4274;SDS011;2151;50.988;11.068;2024-03-23T10:23:16;113.00;;;5.93;;
4274;SDS011;2151;50.988;11.068;2024-03-23T10:25:42;117.07;;;5.80;;
4274;SDS011;2151;50.988;11.068;2024-03-23T10:28:08;117.30;;;6.30;;
4274;SDS011;2151;50.988;11.068;2024-03-23T10:30:34;111.93;;;5.70;;
4274;SDS011;2151;50.988;11.068;2024-03-23T10:33:09;121.33;;;6.20;;
4274;SDS011;2151;50.988;11.068;2024-03-23T10:35:37;114.20;;;5.83;;
4274;SDS011;2151;50.988;11.068;2024-03-23T10:38:06;116.03;;;5.90;;
4274;SDS011;2151;50.988;11.068;2024-03-23T10:40:36;114.13;;;5.93;;
4274;SDS011;2151;50.988;11.068;2024-03-23T10:43:03;112.23;;;5.27;;
4274;SDS011;2151;50.988;11.068;2024-03-23T10:45:29;116.47;;;5.90;;
4274;SDS011;2151;50.988;11.068;2024-03-23T10:47:55;117.70;;;6.13;;
4274;SDS011;2151;50.988;11.068;2024-03-23T10:50:21;117.20;;;6.40;;
4274;SDS011;2151;50.988;11.068;2024-03-23T10:52:48;118.43;;;7.00;;
4274;SDS011;2151;50.988;11.068;2024-03-23T10:55:15;114.57;;;6.20;;
4274;SDS011;2151;50.988;11.068;2024-03-23T10:57:47;114.87;;;6.20;;
4274;SDS011;2151;50.988;11.068;2024-03-23T11:00:13;118.10;;;6.40;;
4274;SDS011;2151;50.988;11.068;2024-03-23T11:02:40;116.60;;;6.17;;
4274;SDS011;2151;50.988;11.068;2024-03-23T11:07:50;116.70;;;6.03;;
4274;SDS011;2151;50.988;11.068;2024-03-23T11:10:25;112.97;;;5.83;;
4274;SDS011;2151;50.988;11.068;2024-03-23T11:12:52;127.80;;;8.37;;
4274;SDS011;2151;50.988;11.068;2024-03-23T11:15:18;113.27;;;6.07;;
4274;SDS011;2151;50.988;11.068;2024-03-23T11:18:07;120.97;;;6.93;;
4274;SDS011;2151;50.988;11.068;2024-03-23T11:20:35;115.87;;;6.57;;
4274;SDS011;2151;50.988;11.068;2024-03-23T11:23:01;121.17;;;7.13;;
4274;SDS011;2151;50.988;11.068;2024-03-23T11:25:27;114.60;;;7.50;;
4274;SDS011;2151;50.988;11.068;2024-03-23T11:27:57;116.73;;;7.20;;
4274;SDS011;2151;50.988;11.068;2024-03-23T11:32:53;117.13;;;7.50;;
4274;SDS011;2151;50.988;11.068;2024-03-23T11:35:33;119.20;;;7.90;;
4274;SDS011;2151;50.988;11.068;2024-03-23T11:38:06;121.37;;;8.10;;
4274;SDS011;2151;50.988;11.068;2024-03-23T11:40:35;114.53;;;6.60;;
4274;SDS011;2151;50.988;11.068;2024-03-23T11:43:03;120.30;;;7.87;;
4274;SDS011;2151;50.988;11.068;2024-03-23T11:45:29;121.73;;;7.23;;
4274;SDS011;2151;50.988;11.068;2024-03-23T11:48:03;120.63;;;7.90;;
4274;SDS011;2151;50.988;11.068;2024-03-23T11:50:29;119.87;;;6.70;;
4274;SDS011;2151;50.988;11.068;2024-03-23T11:58:18;116.80;;;7.47;;
4274;SDS011;2151;50.988;11.068;2024-03-23T12:01:03;114.67;;;6.60;;
4274;SDS011;2151;50.988;11.068;2024-03-23T12:03:31;116.57;;;7.10;;
4274;SDS011;2151;50.988;11.068;2024-03-23T12:05:59;114.17;;;6.80;;
4274;SDS011;2151;50.988;11.068;2024-03-23T12:10:53;114.90;;;6.93;;
4274;SDS011;2151;50.988;11.068;2024-03-23T12:13:21;114.90;;;6.23;;
4274;SDS011;2151;50.988;11.068;2024-03-23T12:15:50;116.10;;;6.27;;
4274;SDS011;2151;50.988;11.068;2024-03-23T12:18:16;112.97;;;6.60;;
4274;SDS011;2151;50.988;11.068;2024-03-23T12:20:42;113.27;;;6.30;;
4274;SDS011;2151;50.988;11.068;2024-03-23T12:23:11;115.90;;;7.00;;
4274;SDS011;2151;50.988;11.068;2024-03-23T12:25:40;118.53;;;6.67;;
4274;SDS011;2151;50.988;11.068;2024-03-23T12:28:07;115.93;;;6.87;;
4274;SDS011;2151;50.988;11.068;2024-03-23T12:30:33;118.20;;;7.07;;
4274;SDS011;2151;50.988;11.068;2024-03-23T12:32:59;116.97;;;6.73;;
4274;SDS011;2151;50.988;11.068;2024-03-23T12:35:24;120.40;;;6.80;;
4274;SDS011;2151;50.988;11.068;2024-03-23T12:37:50;114.07;;;6.17;;
4274;SDS011;2151;50.988;11.068;2024-03-23T12:40:19;115.80;;;6.20;;
4274;SDS011;2151;50.988;11.068;2024-03-23T12:42:45;116.70;;;7.83;;
4274;SDS011;2151;50.988;11.068;2024-03-23T12:45:10;121.70;;;6.27;;
4274;SDS011;2151;50.988;11.068;2024-03-23T12:47:36;115.17;;;6.80;;
4274;SDS011;2151;50.988;11.068;2024-03-23T12:50:01;116.07;;;5.33;;
4274;SDS011;2151;50.988;11.068;2024-03-23T12:52:27;111.53;;;5.70;;
4274;SDS011;2151;50.988;11.068;2024-03-23T12:54:55;112.40;;;6.50;;
4274;SDS011;2151;50.988;11.068;2024-03-23T12:57:25;118.53;;;6.10;;
4274;SDS011;2151;50.988;11.068;2024-03-23T12:59:54;110.90;;;5.37;;
4274;SDS011;2151;50.988;11.068;2024-03-23T13:02:19;111.30;;;5.40;;
4274;SDS011;2151;50.988;11.068;2024-03-23T13:04:46;109.23;;;5.07;;
4274;SDS011;2151;50.988;11.068;2024-03-23T13:07:11;107.40;;;4.60;;
4274;SDS011;2151;50.988;11.068;2024-03-23T13:09:38;111.20;;;5.30;;
4274;SDS011;2151;50.988;11.068;2024-03-23T13:12:04;110.60;;;5.03;;
4274;SDS011;2151;50.988;11.068;2024-03-23T13:14:32;112.67;;;5.30;;
4274;SDS011;2151;50.988;11.068;2024-03-23T13:16:59;112.10;;;5.33;;
4274;SDS011;2151;50.988;11.068;2024-03-23T13:19:24;110.83;;;5.00;;
4274;SDS011;2151;50.988;11.068;2024-03-23T13:21:56;111.23;;;5.40;;
4274;SDS011;2151;50.988;11.068;2024-03-23T13:24:22;110.87;;;5.60;;
4274;SDS011;2151;50.988;11.068;2024-03-23T13:26:49;114.83;;;5.40;;
4274;SDS011;2151;50.988;11.068;2024-03-23T13:29:16;117.03;;;5.20;;
4274;SDS011;2151;50.988;11.068;2024-03-23T13:31:42;111.47;;;4.80;;
4274;SDS011;2151;50.988;11.068;2024-03-23T13:34:07;112.30;;;4.60;;
4274;SDS011;2151;50.988;11.068;2024-03-23T13:36:33;107.97;;;4.30;;
4274;SDS011;2151;50.988;11.068;2024-03-23T13:39:08;110.10;;;4.60;;
4274;SDS011;2151;50.988;11.068;2024-03-23T13:41:40;108.27;;;4.40;;
4274;SDS011;2151;50.988;11.068;2024-03-23T13:44:06;111.97;;;5.20;;
4274;SDS011;2151;50.988;11.068;2024-03-23T13:46:32;112.80;;;5.10;;
4274;SDS011;2151;50.988;11.068;2024-03-23T13:48:58;112.37;;;5.07;;
4274;SDS011;2151;50.988;11.068;2024-03-23T13:51:24;117.33;;;5.03;;
4274;SDS011;2151;50.988;11.068;2024-03-23T13:53:54;109.07;;;4.87;;
4274;SDS011;2151;50.988;11.068;2024-03-23T13:56:22;109.27;;;4.63;;
4274;SDS011;2151;50.988;11.068;2024-03-23T13:58:48;110.97;;;5.40;;
4274;SDS011;2151;50.988;11.068;2024-03-23T14:01:14;110.73;;;5.00;;
4274;SDS011;2151;50.988;11.068;2024-03-23T14:03:40;111.67;;;5.40;;
4274;SDS011;2151;50.988;11.068;2024-03-23T14:06:07;111.33;;;5.87;;
4274;SDS011;2151;50.988;11.068;2024-03-23T14:08:34;110.30;;;5.30;;
4274;SDS011;2151;50.988;11.068;2024-03-23T14:11:05;111.67;;;5.67;;
4274;SDS011;2151;50.988;11.068;2024-03-23T14:13:31;110.40;;;5.20;;
4274;SDS011;2151;50.988;11.068;2024-03-23T14:15:57;111.20;;;5.50;;
4274;SDS011;2151;50.988;11.068;2024-03-23T14:18:23;111.67;;;5.23;;
4274;SDS011;2151;50.988;11.068;2024-03-23T14:20:49;111.77;;;5.93;;
4274;SDS011;2151;50.988;11.068;2024-03-23T14:23:15;113.43;;;5.30;;
4274;SDS011;2151;50.988;11.068;2024-03-23T14:25:41;112.30;;;5.17;;
4274;SDS011;2151;50.988;11.068;2024-03-23T14:28:07;110.70;;;4.93;;
4274;SDS011;2151;50.988;11.068;2024-03-23T14:30:40;110.23;;;5.60;;
4274;SDS011;2151;50.988;11.068;2024-03-23T14:33:05;109.60;;;5.03;;
4274;SDS011;2151;50.988;11.068;2024-03-23T14:35:30;112.17;;;5.07;;
4274;SDS011;2151;50.988;11.068;2024-03-23T14:37:58;112.30;;;5.83;;
4274;SDS011;2151;50.988;11.068;2024-03-23T14:40:24;112.87;;;5.50;;
4274;SDS011;2151;50.988;11.068;2024-03-23T14:42:53;111.80;;;5.30;;
4274;SDS011;2151;50.988;11.068;2024-03-23T14:45:19;110.30;;;5.03;;
4274;SDS011;2151;50.988;11.068;2024-03-23T14:47:45;111.87;;;5.10;;
4274;SDS011;2151;50.988;11.068;2024-03-23T14:50:11;109.57;;;4.80;;
4274;SDS011;2151;50.988;11.068;2024-03-23T14:52:44;109.90;;;4.97;;
4274;SDS011;2151;50.988;11.068;2024-03-23T14:55:10;111.70;;;5.17;;
4274;SDS011;2151;50.988;11.068;2024-03-23T14:57:36;110.60;;;4.73;;
4274;SDS011;2151;50.988;11.068;2024-03-23T15:00:02;110.50;;;5.13;;
4274;SDS011;2151;50.988;11.068;2024-03-23T15:02:30;109.67;;;4.77;;
4274;SDS011;2151;50.988;11.068;2024-03-23T15:04:58;110.37;;;5.20;;
4274;SDS011;2151;50.988;11.068;2024-03-23T15:07:23;109.00;;;4.67;;
4274;SDS011;2151;50.988;11.068;2024-03-23T15:09:48;111.60;;;4.93;;
4274;SDS011;2151;50.988;11.068;2024-03-23T15:12:14;112.47;;;4.97;;
4274;SDS011;2151;50.988;11.068;2024-03-23T15:14:39;109.00;;;4.80;;
4274;SDS011;2151;50.988;11.068;2024-03-23T15:17:05;108.80;;;4.90;;
4274;SDS011;2151;50.988;11.068;2024-03-23T15:19:33;112.80;;;5.30;;
4274;SDS011;2151;50.988;11.068;2024-03-23T15:21:59;109.90;;;5.00;;
4274;SDS011;2151;50.988;11.068;2024-03-23T15:24:26;110.97;;;5.20;;
4274;SDS011;2151;50.988;11.068;2024-03-23T15:26:54;110.37;;;5.00;;
4274;SDS011;2151;50.988;11.068;2024-03-23T15:29:20;109.50;;;5.07;;
4274;SDS011;2151;50.988;11.068;2024-03-23T15:31:46;109.30;;;4.40;;
4274;SDS011;2151;50.988;11.068;2024-03-23T15:34:12;109.50;;;4.47;;
4274;SDS011;2151;50.988;11.068;2024-03-23T15:36:38;109.90;;;4.90;;
4274;SDS011;2151;50.988;11.068;2024-03-23T15:39:06;108.67;;;4.57;;
4274;SDS011;2151;50.988;11.068;2024-03-23T15:41:32;110.40;;;4.93;;